EZY8650 EDDL-EGSS
Flight info
| Callsign | EZY8650 |
|---|---|
| Flight time | 0h 57m |
| Altitude | 32000 |
| Route | SONEB4H SONEB P64 TENLI L602 FLEVO L980 IDRID M40 RINIS |
| Aircraft | A319/M-SDE3FGHIRWY/LB1 |
Departure
| Time | 2026-05-04 20:09 |
|---|---|
| Airport | Düsseldorf Airport (EDDL) |
Arrival
| Time | 2026-05-04 21:07 |
|---|---|
| Airport | London Stansted Airport (EGSS) |
| Time | Latitude | Longitude | Altitude | Speed | Heading |
|---|---|---|---|---|---|
| 2026-05-04 19:23 | 51.28150 | 6.76547 | 131 ft | 0 kts | 96° |
| 2026-05-04 19:45 | 51.28151 | 6.76532 | 130 ft | 4 kts | 96° |
| 2026-05-04 19:45 | 51.28155 | 6.76490 | 129 ft | 4 kts | 96° |
| 2026-05-04 19:46 | 51.28158 | 6.76447 | 128 ft | 4 kts | 96° |
| 2026-05-04 19:46 | 51.28161 | 6.76425 | 127 ft | 4 kts | 81° |
| 2026-05-04 19:46 | 51.28178 | 6.76428 | 127 ft | 4 kts | 4° |
| 2026-05-04 19:46 | 51.28205 | 6.76430 | 129 ft | 4 kts | 6° |
| 2026-05-04 19:47 | 51.28231 | 6.76443 | 130 ft | 4 kts | 25° |
| 2026-05-04 19:47 | 51.28243 | 6.76455 | 128 ft | 0 kts | 34° |
| 2026-05-04 19:50 | 51.28246 | 6.76459 | 126 ft | 2 kts | 37° |
| 2026-05-04 19:50 | 51.28270 | 6.76490 | 130 ft | 7 kts | 35° |
| 2026-05-04 19:51 | 51.28328 | 6.76486 | 127 ft | 12 kts | 352° |
| 2026-05-04 19:51 | 51.28395 | 6.76579 | 125 ft | 15 kts | 53° |
| 2026-05-04 19:51 | 51.28462 | 6.76720 | 125 ft | 17 kts | 52° |
| 2026-05-04 19:51 | 51.28535 | 6.76871 | 128 ft | 18 kts | 53° |
| 2026-05-04 19:52 | 51.28612 | 6.77033 | 128 ft | 19 kts | 53° |
| 2026-05-04 19:52 | 51.28697 | 6.77211 | 130 ft | 21 kts | 52° |
| 2026-05-04 19:52 | 51.28791 | 6.77408 | 126 ft | 23 kts | 53° |
| 2026-05-04 19:52 | 51.28886 | 6.77608 | 128 ft | 23 kts | 53° |
| 2026-05-04 19:53 | 51.28965 | 6.77773 | 130 ft | 8 kts | 52° |
| 2026-05-04 19:53 | 51.28972 | 6.77788 | 129 ft | 3 kts | 52° |
| 2026-05-04 19:53 | 51.28994 | 6.77832 | 130 ft | 7 kts | 52° |
| 2026-05-04 19:53 | 51.29031 | 6.77911 | 129 ft | 11 kts | 54° |
| 2026-05-04 19:54 | 51.29083 | 6.78024 | 131 ft | 14 kts | 53° |
| 2026-05-04 19:54 | 51.29107 | 6.78075 | 133 ft | 1 kts | 52° |
| 2026-05-04 19:54 | 51.29114 | 6.78090 | 133 ft | 2 kts | 52° |
| 2026-05-04 19:54 | 51.29129 | 6.78121 | 134 ft | 4 kts | 52° |
| 2026-05-04 19:55 | 51.29151 | 6.78167 | 135 ft | 6 kts | 52° |
| 2026-05-04 19:55 | 51.29182 | 6.78231 | 138 ft | 9 kts | 52° |
| 2026-05-04 19:55 | 51.29221 | 6.78311 | 141 ft | 9 kts | 52° |
| 2026-05-04 19:55 | 51.29231 | 6.78333 | 142 ft | 0 kts | 52° |
| 2026-05-04 19:56 | 51.29232 | 6.78333 | 142 ft | 0 kts | 52° |
| 2026-05-04 19:56 | 51.29232 | 6.78334 | 142 ft | 0 kts | 52° |
| 2026-05-04 19:56 | 51.29233 | 6.78337 | 142 ft | 0 kts | 52° |
| 2026-05-04 19:56 | 51.29234 | 6.78339 | 142 ft | 0 kts | 52° |
| 2026-05-04 19:57 | 51.29235 | 6.78341 | 142 ft | 1 kts | 52° |
| 2026-05-04 19:57 | 51.29246 | 6.78361 | 143 ft | 3 kts | 52° |
| 2026-05-04 19:57 | 51.29264 | 6.78399 | 145 ft | 5 kts | 52° |
| 2026-05-04 19:57 | 51.29291 | 6.78453 | 147 ft | 5 kts | 52° |
| 2026-05-04 19:58 | 51.29291 | 6.78454 | 147 ft | 0 kts | 52° |
| 2026-05-04 20:00 | 51.29296 | 6.78464 | 147 ft | 2 kts | 52° |
| 2026-05-04 20:00 | 51.29298 | 6.78468 | 148 ft | 0 kts | 53° |
| 2026-05-04 20:01 | 51.29301 | 6.78474 | 148 ft | 2 kts | 53° |
| 2026-05-04 20:01 | 51.29312 | 6.78498 | 149 ft | 4 kts | 53° |
| 2026-05-04 20:01 | 51.29328 | 6.78530 | 150 ft | 3 kts | 48° |
| 2026-05-04 20:01 | 51.29330 | 6.78533 | 150 ft | 0 kts | 47° |
| 2026-05-04 20:02 | 51.29332 | 6.78535 | 150 ft | 1 kts | 46° |
| 2026-05-04 20:02 | 51.29345 | 6.78552 | 151 ft | 4 kts | 34° |
| 2026-05-04 20:02 | 51.29371 | 6.78568 | 152 ft | 0 kts | 6° |
| 2026-05-04 20:03 | 51.29374 | 6.78568 | 152 ft | 0 kts | 6° |
| 2026-05-04 20:03 | 51.29377 | 6.78569 | 152 ft | 0 kts | 6° |
| 2026-05-04 20:03 | 51.29379 | 6.78569 | 152 ft | 2 kts | 6° |
| 2026-05-04 20:04 | 51.29410 | 6.78569 | 152 ft | 7 kts | 356° |
| 2026-05-04 20:04 | 51.29429 | 6.78567 | 152 ft | 0 kts | 356° |
| 2026-05-04 20:07 | 51.29442 | 6.78566 | 152 ft | 7 kts | 356° |
| 2026-05-04 20:07 | 51.29519 | 6.78534 | 154 ft | 15 kts | 307° |
| 2026-05-04 20:07 | 51.29498 | 6.78427 | 150 ft | 0 kts | 231° |
| 2026-05-04 20:09 | 51.29372 | 6.78172 | 144 ft | 71 kts | 232° |
| 2026-05-04 20:09 | 51.28929 | 6.77234 | 128 ft | 137 kts | 232° |
| 2026-05-04 20:09 | 51.28288 | 6.75896 | 465 ft | 157 kts | 231° |
| 2026-05-04 20:09 | 51.27619 | 6.74442 | 1016 ft | 167 kts | 231° |
| 2026-05-04 20:10 | 51.26955 | 6.72888 | 1629 ft | 166 kts | 236° |
| 2026-05-04 20:10 | 51.26522 | 6.71150 | 2201 ft | 177 kts | 259° |
| 2026-05-04 20:10 | 51.26652 | 6.69126 | 2723 ft | 193 kts | 288° |
| 2026-05-04 20:10 | 51.27474 | 6.67326 | 3187 ft | 215 kts | 320° |
| 2026-05-04 20:11 | 51.28901 | 6.66327 | 3708 ft | 237 kts | 351° |
| 2026-05-04 20:11 | 51.30629 | 6.66538 | 4085 ft | 268 kts | 18° |
| 2026-05-04 20:11 | 51.32327 | 6.68041 | 4682 ft | 284 kts | 35° |
| 2026-05-04 20:11 | 51.34040 | 6.69456 | 4939 ft | 279 kts | 17° |
| 2026-05-04 20:12 | 51.35968 | 6.69985 | 5201 ft | 281 kts | 3° |
| 2026-05-04 20:12 | 51.37887 | 6.70077 | 6248 ft | 279 kts | 360° |
| 2026-05-04 20:12 | 51.39833 | 6.70036 | 7236 ft | 281 kts | 358° |
| 2026-05-04 20:12 | 51.41796 | 6.69901 | 8172 ft | 284 kts | 358° |
| 2026-05-04 20:13 | 51.43780 | 6.69769 | 9129 ft | 287 kts | 358° |
| 2026-05-04 20:13 | 51.45785 | 6.69674 | 10016 ft | 290 kts | 359° |
| 2026-05-04 20:13 | 51.47866 | 6.69616 | 10460 ft | 311 kts | 0° |
| 2026-05-04 20:13 | 51.50110 | 6.69590 | 10739 ft | 334 kts | 0° |
| 2026-05-04 20:14 | 51.52485 | 6.69588 | 11283 ft | 345 kts | 0° |
| 2026-05-04 20:14 | 51.54911 | 6.69597 | 12001 ft | 351 kts | 1° |
| 2026-05-04 20:14 | 51.57370 | 6.69613 | 12741 ft | 356 kts | 0° |
| 2026-05-04 20:14 | 51.59870 | 6.69629 | 13483 ft | 361 kts | 0° |
| 2026-05-04 20:15 | 51.62399 | 6.69708 | 14161 ft | 366 kts | 5° |
| 2026-05-04 20:15 | 51.64937 | 6.70125 | 14732 ft | 368 kts | 7° |
| 2026-05-04 20:15 | 51.67483 | 6.70553 | 15039 ft | 371 kts | 6° |
| 2026-05-04 20:15 | 51.70056 | 6.70984 | 15749 ft | 373 kts | 6° |
| 2026-05-04 20:16 | 51.72661 | 6.71418 | 16396 ft | 378 kts | 6° |
| 2026-05-04 20:16 | 51.75296 | 6.71855 | 17019 ft | 383 kts | 6° |
| 2026-05-04 20:16 | 51.77962 | 6.72300 | 17637 ft | 388 kts | 6° |
| 2026-05-04 20:16 | 51.80658 | 6.72753 | 18247 ft | 392 kts | 6° |
| 2026-05-04 20:17 | 51.83394 | 6.73213 | 18778 ft | 397 kts | 6° |
| 2026-05-04 20:17 | 51.86156 | 6.73675 | 19329 ft | 401 kts | 6° |
| 2026-05-04 20:17 | 51.88941 | 6.74139 | 19940 ft | 403 kts | 6° |
| 2026-05-04 20:17 | 51.91740 | 6.74608 | 20497 ft | 407 kts | 6° |
| 2026-05-04 20:18 | 51.94569 | 6.75082 | 21034 ft | 411 kts | 5° |
| 2026-05-04 20:18 | 51.97434 | 6.75076 | 21542 ft | 414 kts | 353° |
| 2026-05-04 20:18 | 52.00256 | 6.74057 | 22040 ft | 417 kts | 340° |
| 2026-05-04 20:18 | 52.02885 | 6.72076 | 22542 ft | 418 kts | 327° |
| 2026-05-04 20:19 | 52.05197 | 6.69214 | 23038 ft | 419 kts | 314° |
| 2026-05-04 20:19 | 52.07082 | 6.65630 | 23534 ft | 418 kts | 303° |
| 2026-05-04 20:19 | 52.08772 | 6.61758 | 23956 ft | 421 kts | 302° |
| 2026-05-04 20:19 | 52.10448 | 6.57907 | 24397 ft | 423 kts | 302° |
| 2026-05-04 20:20 | 52.12154 | 6.53985 | 24795 ft | 426 kts | 302° |
| 2026-05-04 20:20 | 52.13890 | 6.49984 | 25211 ft | 428 kts | 302° |
| 2026-05-04 20:20 | 52.15588 | 6.46064 | 25639 ft | 430 kts | 302° |
| 2026-05-04 20:20 | 52.17309 | 6.42082 | 26062 ft | 431 kts | 301° |
| 2026-05-04 20:21 | 52.19041 | 6.38070 | 26499 ft | 433 kts | 302° |
| 2026-05-04 20:21 | 52.20777 | 6.34040 | 26909 ft | 435 kts | 302° |
| 2026-05-04 20:21 | 52.24174 | 6.25848 | 27727 ft | 436 kts | 296° |
| 2026-05-04 20:22 | 52.25448 | 6.21359 | 28137 ft | 434 kts | 287° |
| 2026-05-04 20:22 | 52.26454 | 6.16705 | 28538 ft | 435 kts | 286° |
| 2026-05-04 20:22 | 52.27459 | 6.12036 | 28929 ft | 437 kts | 286° |
| 2026-05-04 20:22 | 52.28469 | 6.07347 | 29314 ft | 438 kts | 286° |
| 2026-05-04 20:23 | 52.29483 | 6.02657 | 29690 ft | 440 kts | 286° |
| 2026-05-04 20:23 | 52.30505 | 5.97933 | 30050 ft | 441 kts | 286° |
| 2026-05-04 20:23 | 52.31524 | 5.93205 | 30358 ft | 443 kts | 286° |
| 2026-05-04 20:23 | 52.32549 | 5.88419 | 30538 ft | 448 kts | 286° |
| 2026-05-04 20:24 | 52.33577 | 5.83601 | 30777 ft | 451 kts | 286° |
| 2026-05-04 20:24 | 52.34609 | 5.78760 | 31169 ft | 449 kts | 286° |
| 2026-05-04 20:24 | 52.35632 | 5.73945 | 31605 ft | 448 kts | 285° |
| 2026-05-04 20:24 | 52.36651 | 5.69132 | 31923 ft | 447 kts | 285° |
| 2026-05-04 20:25 | 52.37970 | 5.59438 | 32006 ft | 428 kts | 270° |
| 2026-05-04 20:25 | 52.37529 | 5.49854 | 32000 ft | 421 kts | 258° |
| 2026-05-04 20:26 | 52.36586 | 5.40396 | 31997 ft | 422 kts | 258° |
| 2026-05-04 20:26 | 52.35640 | 5.30954 | 32001 ft | 424 kts | 258° |
| 2026-05-04 20:27 | 52.34689 | 5.21444 | 31997 ft | 424 kts | 258° |
| 2026-05-04 20:27 | 52.33744 | 5.11944 | 31996 ft | 423 kts | 258° |
| 2026-05-04 20:28 | 52.32155 | 5.02745 | 31994 ft | 420 kts | 249° |
| 2026-05-04 20:28 | 52.30297 | 4.93698 | 32004 ft | 420 kts | 249° |
| 2026-05-04 20:29 | 52.28435 | 4.84644 | 31993 ft | 420 kts | 249° |
| 2026-05-04 20:29 | 52.26566 | 4.75601 | 31989 ft | 420 kts | 249° |
| 2026-05-04 20:30 | 52.24691 | 4.66566 | 31981 ft | 420 kts | 249° |
| 2026-05-04 20:30 | 52.22808 | 4.57555 | 31981 ft | 420 kts | 249° |
| 2026-05-04 20:31 | 52.20912 | 4.48520 | 31991 ft | 420 kts | 249° |
| 2026-05-04 20:31 | 52.19014 | 4.39496 | 31975 ft | 421 kts | 249° |
| 2026-05-04 20:32 | 52.17102 | 4.30465 | 31986 ft | 422 kts | 249° |
| 2026-05-04 20:32 | 52.15172 | 4.21407 | 31988 ft | 423 kts | 249° |
| 2026-05-04 20:33 | 52.13241 | 4.12363 | 31998 ft | 423 kts | 249° |
| 2026-05-04 20:33 | 52.11312 | 4.03305 | 31994 ft | 423 kts | 249° |
| 2026-05-04 20:34 | 52.09374 | 3.94288 | 31995 ft | 423 kts | 249° |
| 2026-05-04 20:34 | 52.07417 | 3.85294 | 32008 ft | 423 kts | 248° |
| 2026-05-04 20:35 | 52.05453 | 3.76295 | 32010 ft | 422 kts | 249° |
| 2026-05-04 20:35 | 52.03491 | 3.67302 | 31996 ft | 422 kts | 249° |
| 2026-05-04 20:36 | 52.01528 | 3.58318 | 31992 ft | 422 kts | 248° |
| 2026-05-04 20:36 | 51.99656 | 3.49298 | 32000 ft | 423 kts | 255° |
| 2026-05-04 20:37 | 51.98709 | 3.39837 | 31999 ft | 425 kts | 259° |
| 2026-05-04 20:37 | 51.97819 | 3.30402 | 32012 ft | 426 kts | 259° |
| 2026-05-04 20:38 | 51.96913 | 3.20901 | 31840 ft | 427 kts | 259° |
| 2026-05-04 20:38 | 51.96465 | 3.16153 | 31581 ft | 427 kts | 259° |
| 2026-05-04 20:38 | 51.96081 | 3.11363 | 31329 ft | 429 kts | 261° |
| 2026-05-04 20:39 | 51.95764 | 3.06547 | 31072 ft | 430 kts | 262° |
| 2026-05-04 20:39 | 51.95482 | 3.01709 | 30820 ft | 432 kts | 262° |
| 2026-05-04 20:39 | 51.95207 | 2.96851 | 30507 ft | 432 kts | 262° |
| 2026-05-04 20:39 | 51.94921 | 2.91997 | 29734 ft | 433 kts | 262° |
| 2026-05-04 20:40 | 51.94616 | 2.87156 | 29073 ft | 429 kts | 262° |
| 2026-05-04 20:40 | 51.94303 | 2.82375 | 28449 ft | 425 kts | 262° |
| 2026-05-04 20:40 | 51.93983 | 2.77641 | 27824 ft | 421 kts | 262° |
| 2026-05-04 20:40 | 51.93658 | 2.72945 | 27220 ft | 417 kts | 262° |
| 2026-05-04 20:41 | 51.93336 | 2.68298 | 26612 ft | 414 kts | 262° |
| 2026-05-04 20:41 | 51.93019 | 2.63686 | 26006 ft | 411 kts | 262° |
| 2026-05-04 20:41 | 51.92706 | 2.59104 | 25405 ft | 408 kts | 262° |
| 2026-05-04 20:41 | 51.92392 | 2.54548 | 24808 ft | 405 kts | 263° |
| 2026-05-04 20:42 | 51.92079 | 2.50040 | 24232 ft | 402 kts | 263° |
| 2026-05-04 20:42 | 51.91764 | 2.45545 | 23659 ft | 400 kts | 263° |
| 2026-05-04 20:42 | 51.91447 | 2.41087 | 23039 ft | 397 kts | 263° |
| 2026-05-04 20:42 | 51.91131 | 2.36673 | 22511 ft | 392 kts | 263° |
| 2026-05-04 20:43 | 51.90824 | 2.32316 | 22018 ft | 388 kts | 263° |
| 2026-05-04 20:43 | 51.90613 | 2.28019 | 21624 ft | 387 kts | 266° |
| 2026-05-04 20:43 | 51.90498 | 2.23687 | 21234 ft | 385 kts | 267° |
| 2026-05-04 20:43 | 51.90433 | 2.19379 | 20842 ft | 381 kts | 268° |
| 2026-05-04 20:44 | 51.90378 | 2.15099 | 20455 ft | 380 kts | 268° |
| 2026-05-04 20:44 | 51.90315 | 2.10834 | 20069 ft | 379 kts | 268° |
| 2026-05-04 20:44 | 51.90233 | 2.06572 | 19682 ft | 378 kts | 267° |
| 2026-05-04 20:44 | 51.90136 | 2.02341 | 19295 ft | 375 kts | 267° |
| 2026-05-04 20:45 | 51.90028 | 1.98137 | 18911 ft | 373 kts | 266° |
| 2026-05-04 20:45 | 51.89924 | 1.93964 | 18539 ft | 371 kts | 268° |
| 2026-05-04 20:45 | 51.90130 | 1.89802 | 18130 ft | 371 kts | 278° |
| 2026-05-04 20:45 | 51.90820 | 1.85782 | 17737 ft | 372 kts | 290° |
| 2026-05-04 20:46 | 51.91946 | 1.82006 | 17356 ft | 372 kts | 297° |
| 2026-05-04 20:46 | 51.93173 | 1.78322 | 16975 ft | 371 kts | 297° |
| 2026-05-04 20:46 | 51.94386 | 1.74651 | 16592 ft | 369 kts | 297° |
| 2026-05-04 20:46 | 51.95590 | 1.70997 | 16209 ft | 365 kts | 297° |
| 2026-05-04 20:47 | 51.96778 | 1.67384 | 15839 ft | 362 kts | 297° |
| 2026-05-04 20:47 | 51.97962 | 1.63773 | 15463 ft | 361 kts | 297° |
| 2026-05-04 20:47 | 51.99135 | 1.60187 | 15083 ft | 359 kts | 297° |
| 2026-05-04 20:47 | 52.00299 | 1.56627 | 14720 ft | 356 kts | 297° |
| 2026-05-04 20:48 | 52.01458 | 1.53080 | 14356 ft | 355 kts | 297° |
| 2026-05-04 20:48 | 52.02613 | 1.49540 | 13997 ft | 353 kts | 297° |
| 2026-05-04 20:48 | 52.03744 | 1.46065 | 13618 ft | 353 kts | 297° |
| 2026-05-04 20:48 | 52.04885 | 1.42557 | 13240 ft | 349 kts | 297° |
| 2026-05-04 20:49 | 52.06012 | 1.39092 | 12880 ft | 346 kts | 297° |
| 2026-05-04 20:49 | 52.07128 | 1.35657 | 12585 ft | 338 kts | 297° |
| 2026-05-04 20:49 | 52.08200 | 1.32352 | 12463 ft | 324 kts | 297° |
| 2026-05-04 20:49 | 52.09229 | 1.29178 | 12334 ft | 311 kts | 297° |
| 2026-05-04 20:50 | 52.10219 | 1.26119 | 12202 ft | 300 kts | 297° |
| 2026-05-04 20:50 | 52.11021 | 1.23050 | 11961 ft | 292 kts | 284° |
| 2026-05-04 20:50 | 52.11268 | 1.20927 | 11946 ft | 286 kts | 275° |
| 2026-05-04 20:50 | 52.11243 | 1.17623 | 11823 ft | 289 kts | 262° |
| 2026-05-04 20:51 | 52.10787 | 1.14497 | 11610 ft | 288 kts | 255° |
| 2026-05-04 20:51 | 52.10262 | 1.11364 | 11384 ft | 287 kts | 255° |
| 2026-05-04 20:51 | 52.09740 | 1.08226 | 11171 ft | 287 kts | 255° |
| 2026-05-04 20:51 | 52.09219 | 1.05095 | 10954 ft | 286 kts | 255° |
| 2026-05-04 20:52 | 52.08702 | 1.01986 | 10738 ft | 284 kts | 255° |
| 2026-05-04 20:52 | 52.08187 | 0.98890 | 10521 ft | 283 kts | 255° |
| 2026-05-04 20:52 | 52.07672 | 0.95809 | 10308 ft | 283 kts | 255° |
| 2026-05-04 20:52 | 52.07155 | 0.92724 | 10082 ft | 283 kts | 255° |
| 2026-05-04 20:53 | 52.06637 | 0.89643 | 9868 ft | 283 kts | 255° |
| 2026-05-04 20:53 | 52.06120 | 0.86567 | 9642 ft | 282 kts | 255° |
| 2026-05-04 20:53 | 52.05605 | 0.83510 | 9425 ft | 281 kts | 255° |
| 2026-05-04 20:53 | 52.05089 | 0.80454 | 9212 ft | 279 kts | 255° |
| 2026-05-04 20:54 | 52.04573 | 0.77414 | 8993 ft | 278 kts | 255° |
| 2026-05-04 20:54 | 52.04061 | 0.74390 | 8782 ft | 278 kts | 255° |
| 2026-05-04 20:54 | 52.03549 | 0.71372 | 8576 ft | 276 kts | 255° |
| 2026-05-04 20:54 | 52.03038 | 0.68370 | 8364 ft | 275 kts | 255° |
| 2026-05-04 20:55 | 52.02536 | 0.65423 | 8219 ft | 265 kts | 255° |
| 2026-05-04 20:55 | 52.02054 | 0.62599 | 8091 ft | 255 kts | 256° |
| 2026-05-04 20:55 | 52.01620 | 0.59873 | 7949 ft | 245 kts | 262° |
| 2026-05-04 20:55 | 52.01477 | 0.57159 | 7808 ft | 238 kts | 267° |
| 2026-05-04 20:56 | 52.01360 | 0.54467 | 7683 ft | 239 kts | 267° |
| 2026-05-04 20:56 | 52.01240 | 0.51786 | 7522 ft | 238 kts | 267° |
| 2026-05-04 20:56 | 52.01120 | 0.49107 | 7354 ft | 238 kts | 267° |
| 2026-05-04 20:56 | 52.00997 | 0.46439 | 7185 ft | 236 kts | 266° |
| 2026-05-04 20:57 | 52.00873 | 0.43781 | 7013 ft | 236 kts | 266° |
| 2026-05-04 20:57 | 52.00750 | 0.41138 | 6816 ft | 234 kts | 266° |
| 2026-05-04 20:57 | 52.00625 | 0.38501 | 6631 ft | 234 kts | 266° |
| 2026-05-04 20:57 | 52.00498 | 0.35874 | 6458 ft | 233 kts | 266° |
| 2026-05-04 20:58 | 52.00372 | 0.33257 | 6281 ft | 232 kts | 266° |
| 2026-05-04 20:58 | 52.00249 | 0.30680 | 6115 ft | 232 kts | 266° |
| 2026-05-04 20:58 | 51.99915 | 0.28127 | 5948 ft | 233 kts | 249° |
| 2026-05-04 20:58 | 51.99086 | 0.25880 | 5774 ft | 234 kts | 230° |
| 2026-05-04 20:59 | 51.97916 | 0.24039 | 5607 ft | 234 kts | 224° |
| 2026-05-04 20:59 | 51.96724 | 0.22233 | 5434 ft | 234 kts | 224° |
| 2026-05-04 20:59 | 51.95536 | 0.20432 | 5261 ft | 233 kts | 224° |
| 2026-05-04 20:59 | 51.94354 | 0.18635 | 5082 ft | 233 kts | 224° |
| 2026-05-04 21:00 | 51.93175 | 0.16845 | 4906 ft | 232 kts | 225° |
| 2026-05-04 21:00 | 51.91995 | 0.15057 | 4728 ft | 232 kts | 224° |
| 2026-05-04 21:00 | 51.90819 | 0.13269 | 4554 ft | 232 kts | 225° |
| 2026-05-04 21:00 | 51.89643 | 0.11481 | 4382 ft | 232 kts | 224° |
| 2026-05-04 21:01 | 51.88462 | 0.09691 | 4212 ft | 233 kts | 224° |
| 2026-05-04 21:01 | 51.87280 | 0.07901 | 4034 ft | 233 kts | 224° |
| 2026-05-04 21:01 | 51.86095 | 0.06107 | 3872 ft | 234 kts | 224° |
| 2026-05-04 21:01 | 51.84908 | 0.04308 | 3683 ft | 234 kts | 224° |
| 2026-05-04 21:02 | 51.83721 | 0.02511 | 3508 ft | 234 kts | 224° |
| 2026-05-04 21:02 | 51.82402 | 0.01006 | 3329 ft | 230 kts | 200° |
| 2026-05-04 21:02 | 51.80867 | 0.00788 | 3196 ft | 218 kts | 167° |
| 2026-05-04 21:02 | 51.79546 | 0.01784 | 3070 ft | 207 kts | 138° |
| 2026-05-04 21:03 | 51.78675 | 0.03515 | 3039 ft | 194 kts | 113° |
| 2026-05-04 21:03 | 51.78324 | 0.05556 | 2986 ft | 188 kts | 91° |
| 2026-05-04 21:03 | 51.78485 | 0.07617 | 2861 ft | 184 kts | 69° |
| 2026-05-04 21:03 | 51.79093 | 0.09365 | 2709 ft | 176 kts | 49° |
| 2026-05-04 21:04 | 51.79962 | 0.10712 | 2471 ft | 169 kts | 43° |
| 2026-05-04 21:04 | 51.80802 | 0.11965 | 2248 ft | 160 kts | 43° |
| 2026-05-04 21:04 | 51.81600 | 0.13155 | 2036 ft | 152 kts | 42° |
| 2026-05-04 21:04 | 51.82355 | 0.14283 | 1842 ft | 143 kts | 42° |
| 2026-05-04 21:05 | 51.83058 | 0.15334 | 1660 ft | 131 kts | 42° |
| 2026-05-04 21:05 | 51.83713 | 0.16313 | 1472 ft | 126 kts | 42° |
| 2026-05-04 21:05 | 51.84350 | 0.17266 | 1299 ft | 124 kts | 42° |
| 2026-05-04 21:05 | 51.84994 | 0.18199 | 1140 ft | 124 kts | 41° |
| 2026-05-04 21:06 | 51.85617 | 0.19146 | 949 ft | 126 kts | 42° |
| 2026-05-04 21:06 | 51.86261 | 0.20127 | 767 ft | 126 kts | 41° |
| 2026-05-04 21:06 | 51.86907 | 0.21088 | 596 ft | 126 kts | 41° |
| 2026-05-04 21:06 | 51.87545 | 0.22057 | 421 ft | 126 kts | 39° |
| 2026-05-04 21:07 | 51.88172 | 0.22992 | 331 ft | 112 kts | 40° |
| 2026-05-04 21:07 | 51.88531 | 0.23519 | 337 ft | 27 kts | 43° |
| 2026-05-04 21:07 | 51.88660 | 0.23716 | 333 ft | 26 kts | 43° |
| 2026-05-04 21:07 | 51.88782 | 0.23907 | 337 ft | 24 kts | 49° |
| 2026-05-04 21:08 | 51.88860 | 0.24131 | 337 ft | 20 kts | 68° |
| 2026-05-04 21:08 | 51.88901 | 0.24332 | 343 ft | 18 kts | 72° |
| 2026-05-04 21:08 | 51.88926 | 0.24458 | 345 ft | 8 kts | 82° |
| 2026-05-04 21:08 | 51.88903 | 0.24526 | 348 ft | 7 kts | 125° |
| 2026-05-04 21:09 | 51.88910 | 0.24579 | 347 ft | 6 kts | 39° |
| 2026-05-04 21:09 | 51.88953 | 0.24637 | 345 ft | 10 kts | 42° |
| 2026-05-04 21:09 | 51.89017 | 0.24732 | 347 ft | 15 kts | 44° |
| 2026-05-04 21:09 | 51.89101 | 0.24865 | 347 ft | 18 kts | 44° |
| 2026-05-04 21:10 | 51.89204 | 0.25023 | 343 ft | 19 kts | 45° |
| 2026-05-04 21:10 | 51.89245 | 0.25150 | 344 ft | 14 kts | 93° |
| 2026-05-04 21:10 | 51.89204 | 0.25232 | 349 ft | 5 kts | 137° |
| 2026-05-04 21:10 | 51.89173 | 0.25288 | 344 ft | 8 kts | 108° |
| 2026-05-04 21:11 | 51.89141 | 0.25391 | 341 ft | 14 kts | 133° |
| 2026-05-04 21:11 | 51.89068 | 0.25519 | 341 ft | 12 kts | 132° |
| 2026-05-04 21:11 | 51.89046 | 0.25593 | 348 ft | 6 kts | 71° |
| 2026-05-04 21:11 | 51.89067 | 0.25624 | 345 ft | 2 kts | 41° |
| 2026-05-04 21:12 | 51.89068 | 0.25626 | 345 ft | 0 kts | 41° |
| 2026-05-04 21:12 | 51.89071 | 0.25630 | 344 ft | 0 kts | 41° |